Time;durP1;ratioP1;P1;durP2;ratioP2;P2;SDS_P1;SDS_P2;PMS_P1;PMS_P2;Temp;Humidity;BMP_temperature;BMP_pressure;BME280_temperature;BME280_humidity;BME280_pressure;Samples;Min_cycle;Max_cycle;Signal;HPM_P1;HPM_P2
2024/02/05 07:30:32;;;;;;;7.13;4.68;;;;;;;6.23;87.94;97453.13;2097146;27;20588;-67
2024/02/05 07:31:33;;;;;;;10.93;8.07;;;;;;;6.67;86.27;97459.38;2087951;28;20197;-67
2024/02/05 07:32:35;;;;;;;9.68;6.38;;;;;;;7.00;84.51;97462.28;2087663;28;20189;-67
2024/02/05 07:33:36;;;;;;;5.85;2.88;;;;;;;7.30;83.31;97462.63;2088739;28;20246;-67
2024/02/05 07:34:38;;;;;;;3.28;1.00;;;;;;;7.73;81.80;97463.50;2089408;28;20565;-67
2024/02/05 07:35:40;;;;;;;2.05;1.00;;;;;;;8.08;79.99;97466.28;2083587;28;20226;-67
2024/02/05 07:36:41;;;;;;;3.20;1.60;;;;;;;8.30;78.88;97457.13;2078362;28;20331;-67
2024/02/05 07:37:43;;;;;;;4.97;1.10;;;;;;;8.53;77.73;97460.09;2077647;28;20700;-67
2024/02/05 07:38:44;;;;;;;3.10;1.00;;;;;;;8.77;76.89;97459.53;2077401;28;20205;-67
2024/02/05 07:39:46;;;;;;;3.30;0.90;;;;;;;9.12;75.64;97465.59;2078020;28;20205;-68
2024/02/05 07:40:48;;;;;;;2.30;0.85;;;;;;;9.34;75.17;97454.59;2074610;28;20225;-68
2024/02/05 07:41:49;;;;;;;2.78;0.80;;;;;;;9.20;73.99;97460.16;2078177;28;20776;-68
2024/02/05 07:42:51;;;;;;;2.55;1.00;;;;;;;9.41;74.10;97458.75;2080202;28;20281;-68
2024/02/05 07:43:52;;;;;;;7.10;0.95;;;;;;;10.21;72.67;97460.84;2078063;28;20198;-68
2024/02/05 07:44:54;;;;;;;4.30;1.05;;;;;;;10.97;71.22;97453.25;2078283;28;20198;-69
2024/02/05 07:45:56;;;;;;;3.00;1.08;;;;;;;11.53;68.42;97456.56;2080632;28;20667;-68
2024/02/05 07:46:58;;;;;;;4.35;1.10;;;;;;;11.46;66.81;97448.09;2078867;28;20212;-69
2024/02/05 07:48:00;;;;;;;2.10;1.10;;;;;;;11.43;66.90;97451.66;2079821;28;20212;-68
2024/02/05 07:49:02;;;;;;;5.22;0.82;;;;;;;11.41;67.16;97455.25;2081505;28;20602;-69
2024/02/05 07:50:04;;;;;;;5.07;0.77;;;;;;;11.17;67.46;97447.34;2082295;28;20205;-69
2024/02/05 07:51:05;;;;;;;3.17;0.70;;;;;;;11.15;67.05;97445.69;2081174;28;20656;-69
2024/02/05 07:52:08;;;;;;;3.22;0.73;;;;;;;11.63;66.00;97454.47;2070225;28;20205;-69
2024/02/05 07:53:09;;;;;;;3.85;0.80;;;;;;;11.43;65.78;97443.81;2069747;28;20202;-69
2024/02/05 07:54:12;;;;;;;4.40;0.90;;;;;;;11.89;65.23;97456.16;2077430;28;20251;-69
2024/02/05 07:55:13;;;;;;;1.63;0.73;;;;;;;11.79;64.90;97453.00;2078752;28;20209;-69
2024/02/05 07:56:15;;;;;;;5.65;0.90;;;;;;;11.54;65.39;97459.16;2078159;28;20251;-69
2024/02/05 07:57:18;;;;;;;2.85;0.70;;;;;;;11.41;66.17;97458.75;2077427;28;20198;-69
2024/02/05 07:58:20;;;;;;;1.50;0.70;;;;;;;11.32;67.09;97460.81;2078132;28;20198;-69
2024/02/05 07:59:22;;;;;;;1.63;0.68;;;;;;;11.35;66.52;97456.31;2077361;28;20194;-69
2024/02/05 08:00:24;;;;;;;9.48;1.30;;;;;;;11.73;65.95;97467.19;2077787;28;20201;-68
2024/02/05 08:01:26;;;;;;;4.22;1.10;;;;;;;11.92;64.51;97456.03;2078668;28;20288;-69
2024/02/05 08:02:28;;;;;;;9.10;1.55;;;;;;;12.13;64.21;97466.66;2078253;28;20197;-69
2024/02/05 08:03:30;;;;;;;8.90;3.60;;;;;;;11.81;64.51;97451.22;2078050;28;20206;-69
2024/02/05 08:04:31;;;;;;;7.97;2.75;;;;;;;12.27;63.68;97459.13;2076975;28;20201;-69
2024/02/05 08:05:34;;;;;;;7.90;2.70;;;;;;;12.78;62.43;97464.13;2078233;28;20284;-69
2024/02/05 08:06:35;;;;;;;5.05;1.85;;;;;;;12.77;62.08;97458.03;2079668;28;20193;-69
2024/02/05 08:07:37;;;;;;;9.32;3.65;;;;;;;12.42;62.73;97457.69;2079803;28;20644;-69
2024/02/05 08:08:39;;;;;;;11.07;3.85;;;;;;;12.12;63.74;97463.16;2077819;28;20190;-69
2024/02/05 08:09:40;;;;;;;5.43;2.25;;;;;;;11.86;63.70;97453.63;2079425;28;20233;-69
2024/02/05 08:10:42;;;;;;;7.28;2.40;;;;;;;11.96;64.02;97460.28;2077617;28;20225;-68
2024/02/05 08:11:44;;;;;;;3.97;1.60;;;;;;;11.98;63.68;97460.22;2076941;28;20232;-69
2024/02/05 08:12:45;;;;;;;5.80;1.15;;;;;;;12.51;62.82;97459.94;2078698;28;20220;-68
2024/02/05 08:13:48;;;;;;;3.05;1.05;;;;;;;12.38;62.92;97464.78;2084260;28;20545;-68
2024/02/05 08:14:50;;;;;;;4.90;1.20;;;;;;;11.99;63.45;97456.72;2081005;28;20649;-67
2024/02/05 08:15:51;;;;;;;4.35;0.90;;;;;;;11.53;64.67;97456.56;2081786;28;20236;-68
2024/02/05 08:16:54;;;;;;;5.10;1.15;;;;;;;11.92;64.16;97458.66;2081316;28;20193;-68
2024/02/05 08:17:55;;;;;;;2.65;1.10;;;;;;;11.26;65.06;97459.25;2078555;28;20198;-69
2024/02/05 08:18:57;;;;;;;3.35;0.88;;;;;;;11.32;65.77;97471.25;2078318;28;20197;-68
2024/02/05 08:19:58;;;;;;;3.63;0.98;;;;;;;11.13;66.28;97464.03;2078945;28;20205;-68
2024/02/05 08:21:00;;;;;;;2.97;0.90;;;;;;;11.19;65.80;97466.44;2077975;28;20661;-68
2024/02/05 08:22:02;;;;;;;3.85;0.80;;;;;;;11.29;66.27;97464.38;2078778;28;20197;-68
2024/02/05 08:23:04;;;;;;;3.03;1.08;;;;;;;11.34;65.58;97457.22;2078078;28;20240;-68
2024/02/05 08:24:05;;;;;;;3.83;1.05;;;;;;;11.28;66.09;97462.66;2078096;28;20645;-68
2024/02/05 08:25:07;;;;;;;3.92;1.10;;;;;;;11.80;64.95;97459.13;2079357;28;20213;-68
2024/02/05 08:26:09;;;;;;;2.90;1.05;;;;;;;11.55;64.68;97452.16;2076616;28;20236;-69
2024/02/05 08:27:13;;;;;;;13.05;1.00;;;;;;;11.26;65.40;97462.72;2080533;28;20279;-69
2024/02/05 08:28:15;;;;;;;16.80;1.10;;;;;;;11.22;65.54;97450.69;2078137;28;20193;-69
2024/02/05 08:29:18;;;;;;;3.10;1.10;;;;;;;11.82;64.74;97454.66;2078963;28;20202;-69
2024/02/05 08:30:20;;;;;;;9.85;1.17;;;;;;;11.55;64.99;97454.75;2074681;28;20251;-69
2024/02/05 08:31:22;;;;;;;7.57;1.20;;;;;;;12.51;63.63;97453.84;2082716;28;20248;-69
2024/02/05 08:32:23;;;;;;;8.05;1.80;;;;;;;12.50;62.16;97460.84;2084389;28;20201;-69
2024/02/05 08:33:25;;;;;;;4.47;1.17;;;;;;;12.58;62.16;97461.41;2084720;28;20581;-69
2024/02/05 08:34:27;;;;;;;2.50;0.90;;;;;;;12.76;62.08;97461.56;2087246;28;20204;-69
2024/02/05 08:35:29;;;;;;;4.47;1.23;;;;;;;12.96;61.37;97460.75;2086736;28;20568;-69
2024/02/05 08:36:31;;;;;;;4.13;1.00;;;;;;;13.05;61.24;97467.38;2085832;28;20371;-69
2024/02/05 08:37:33;;;;;;;5.72;1.00;;;;;;;12.49;61.87;97458.28;2091361;28;20829;-69
2024/02/05 08:38:34;;;;;;;4.13;1.15;;;;;;;12.86;61.48;97467.28;2092833;28;20204;-69
2024/02/05 08:39:36;;;;;;;2.83;0.90;;;;;;;-145.49;100.00;55703.94;2087405;28;20239;-69
2024/02/05 08:40:37;;;;;;;3.95;1.17;;;;;;;-145.49;100.00;55703.94;2086316;28;20204;-69
2024/02/05 08:41:39;;;;;;;5.00;1.20;;;;;;;-145.49;100.00;55703.94;2082172;28;20201;-69
2024/02/05 08:42:41;;;;;;;3.10;1.15;;;;;;;-145.49;100.00;55703.94;2081090;28;20201;-69
2024/02/05 08:43:42;;;;;;;3.05;0.98;;;;;;;-145.49;100.00;55703.94;2079419;28;20198;-69
2024/02/05 08:44:45;;;;;;;6.78;0.85;;;;;;;-145.49;100.00;55703.94;2081354;28;20198;-69
2024/02/05 08:45:48;;;;;;;4.20;1.08;;;;;;;-145.49;100.00;55703.94;2078837;28;20259;-69
2024/02/05 08:46:53;;;;;;;10.77;2.00;;;;;;;-145.49;100.00;55703.94;2080852;28;20682;-69
2024/02/05 08:47:55;;;;;;;9.65;1.80;;;;;;;-145.49;100.00;55703.94;2080672;28;20194;-69
2024/02/05 08:48:56;;;;;;;10.18;2.28;;;;;;;-145.49;100.00;55703.94;2080705;28;20247;-69
2024/02/05 08:49:58;;;;;;;7.65;1.85;;;;;;;-145.49;100.00;55703.94;2081428;28;20238;-69
2024/02/05 08:51:00;;;;;;;12.63;1.20;;;;;;;-145.49;100.00;55703.94;2080953;28;20274;-69
2024/02/05 08:52:01;;;;;;;10.77;2.35;;;;;;;-145.49;100.00;55703.94;2080819;28;20213;-69
2024/02/05 08:53:03;;;;;;;8.75;1.63;;;;;;;-145.49;100.00;55703.94;2080159;28;20205;-69
2024/02/05 08:54:05;;;;;;;5.70;1.60;;;;;;;-145.49;100.00;55703.94;2080205;28;20860;-69
2024/02/05 08:55:08;;;;;;;9.57;2.83;;;;;;;-145.49;100.00;55703.94;2081085;28;20198;-69
2024/02/05 08:56:10;;;;;;;4.35;1.00;;;;;;;-145.49;100.00;55703.94;2079769;28;20221;-69
2024/02/05 08:57:11;;;;;;;4.63;1.52;;;;;;;-145.49;100.00;55703.94;2080361;28;20240;-69
2024/02/05 08:58:13;;;;;;;5.20;1.10;;;;;;;-145.49;100.00;55703.94;2080258;28;20620;-69
2024/02/05 08:59:14;;;;;;;2.17;0.90;;;;;;;-145.49;100.00;55703.94;2081834;28;20243;-69
2024/02/05 09:00:17;;;;;;;7.05;1.38;;;;;;;-145.49;100.00;55703.94;2082556;28;20201;-69
2024/02/05 09:01:19;;;;;;;4.45;0.95;;;;;;;-145.49;100.00;55703.94;2084760;28;20731;-69
2024/02/05 09:02:21;;;;;;;3.72;0.98;;;;;;;-145.49;100.00;55703.94;2083848;28;20671;-69
2024/02/05 09:03:23;;;;;;;2.80;0.90;;;;;;;-145.49;100.00;55703.94;2078146;28;20194;-69
2024/02/05 09:04:24;;;;;;;2.13;0.90;;;;;;;-145.49;100.00;55703.94;2080440;28;20201;-69
2024/02/05 09:05:26;;;;;;;7.03;1.20;;;;;;;-145.49;100.00;55703.94;2080443;28;20272;-68
2024/02/05 09:06:41;;;;;;;6.47;1.10;;;;;;;-145.49;100.00;55703.94;2081055;28;20193;-69
2024/02/05 09:07:43;;;;;;;6.53;1.13;;;;;;;-145.49;100.00;55703.94;2080535;28;20197;-69
2024/02/05 09:08:44;;;;;;;5.30;1.60;;;;;;;-145.49;100.00;55703.94;2083930;28;20236;-69
2024/02/05 09:09:46;;;;;;;3.25;1.02;;;;;;;-145.49;100.00;55703.94;2080477;28;20285;-69
2024/02/05 09:10:47;;;;;;;3.17;1.13;;;;;;;-145.49;100.00;55703.94;2076235;28;20241;-69
2024/02/05 09:11:49;;;;;;;5.63;1.35;;;;;;;-145.49;100.00;55703.94;2077915;28;20204;-69
2024/02/05 09:13:05;;;;;;;4.65;1.05;;;;;;;-145.49;100.00;55703.94;2078251;28;20551;-69
2024/02/05 09:14:07;;;;;;;5.35;1.10;;;;;;;-145.49;100.00;55703.94;2082393;28;20201;-69
2024/02/05 09:15:10;;;;;;;5.72;1.15;;;;;;;-145.49;100.00;55703.94;2082178;28;20821;-69
2024/02/05 09:16:12;;;;;;;4.40;1.08;;;;;;;-145.49;100.00;55703.94;2077934;28;20221;-70
2024/02/05 09:17:15;;;;;;;2.72;1.02;;;;;;;-145.49;100.00;55703.94;2082347;28;20225;-69
2024/02/05 09:18:17;;;;;;;4.25;1.30;;;;;;;-145.49;100.00;55703.94;2084253;28;20250;-69
2024/02/05 09:19:19;;;;;;;4.25;1.00;;;;;;;-145.49;100.00;55703.94;2083187;28;20241;-69
2024/02/05 09:20:21;;;;;;;9.20;2.42;;;;;;;-145.49;100.00;55703.94;2082944;28;20194;-70
2024/02/05 09:21:23;;;;;;;4.80;1.27;;;;;;;-145.49;100.00;55703.94;2080428;28;20221;-70
2024/02/05 09:22:24;;;;;;;3.47;1.38;;;;;;;-145.49;100.00;55703.94;2080290;28;20289;-69
2024/02/05 09:23:26;;;;;;;3.17;1.00;;;;;;;-145.49;100.00;55703.94;2080850;28;20548;-69
2024/02/05 09:24:28;;;;;;;4.05;1.17;;;;;;;-145.49;100.00;55703.94;2080531;28;20197;-69
2024/02/05 09:25:29;;;;;;;3.42;1.20;;;;;;;-145.49;100.00;55703.94;2080891;28;20224;-70
2024/02/05 09:26:31;;;;;;;9.35;1.50;;;;;;;-145.49;100.00;55703.94;2081574;28;20203;-69
2024/02/05 09:27:32;;;;;;;5.97;1.00;;;;;;;-145.49;100.00;55703.94;2080564;28;20909;-69
2024/02/05 09:28:34;;;;;;;8.45;1.30;;;;;;;-145.49;100.00;55703.94;2081716;28;20210;-69
2024/02/05 09:29:36;;;;;;;9.27;1.70;;;;;;;-145.49;100.00;55703.94;2080552;28;20306;-69
2024/02/05 09:30:38;;;;;;;14.80;1.70;;;;;;;-145.49;100.00;55703.94;2079228;28;20332;-70
2024/02/05 09:31:40;;;;;;;6.78;1.73;;;;;;;-145.49;100.00;55703.94;2081480;28;20193;-69
2024/02/05 09:32:42;;;;;;;8.80;2.00;;;;;;;-145.49;100.00;55703.94;2080875;28;20252;-69
2024/02/05 09:33:43;;;;;;;3.72;1.30;;;;;;;-145.49;100.00;55703.94;2080545;28;20198;-69
2024/02/05 09:34:45;;;;;;;6.38;1.70;;;;;;;-145.49;100.00;55703.94;2080389;28;20318;-69
2024/02/05 09:35:47;;;;;;;6.68;1.60;;;;;;;-145.49;100.00;55703.94;2077723;28;20217;-69
2024/02/05 09:36:48;;;;;;;6.53;1.60;;;;;;;-145.49;100.00;55703.94;2080058;28;20198;-69
2024/02/05 09:37:50;;;;;;;5.07;1.38;;;;;;;-145.49;100.00;55703.94;2082249;28;21058;-70
2024/02/05 09:38:51;;;;;;;9.93;1.80;;;;;;;-145.49;100.00;55703.94;2086326;28;20202;-69
2024/02/05 09:39:53;;;;;;;5.68;1.30;;;;;;;-145.49;100.00;55703.94;2080214;28;20278;-70
2024/02/05 09:41:05;;;;;;;6.47;1.40;;;;;;;-145.49;100.00;55703.94;2081428;28;20707;-69
2024/02/05 09:42:09;;;;;;;11.23;1.70;;;;;;;-145.49;100.00;55703.94;2080233;28;20194;-69
2024/02/05 09:43:11;;;;;;;7.32;1.70;;;;;;;-145.49;100.00;55703.94;2077623;28;20271;-69
2024/02/05 09:44:15;;;;;;;8.10;1.70;;;;;;;-145.49;100.00;55703.94;2079747;28;20314;-69
2024/02/05 09:45:18;;;;;;;7.43;1.55;;;;;;;-145.49;100.00;55703.94;2080991;28;20196;-69
2024/02/05 09:46:22;;;;;;;14.13;1.80;;;;;;;-145.49;100.00;55703.94;2079288;28;20331;-69
2024/02/05 09:47:26;;;;;;;6.40;1.35;;;;;;;-145.49;100.00;55703.94;2082158;28;20208;-69
2024/02/05 09:48:31;;;;;;;8.57;1.77;;;;;;;-145.49;100.00;55703.94;2084730;28;20194;-69
2024/02/05 09:49:41;;;;;;;11.43;1.58;;;;;;;-145.49;100.00;55703.94;2079988;28;20202;-69
2024/02/05 09:50:43;;;;;;;6.47;1.70;;;;;;;-145.49;100.00;55703.94;2081204;28;20197;-69
2024/02/05 09:51:46;;;;;;;8.70;2.05;;;;;;;-145.49;100.00;55703.94;2080716;28;20212;-69
2024/02/05 09:52:48;;;;;;;8.32;1.60;;;;;;;-145.49;100.00;55703.94;2080230;28;20206;-70
2024/02/05 09:53:50;;;;;;;15.40;2.30;;;;;;;-145.49;100.00;55703.94;2081477;28;20917;-69
2024/02/05 09:54:55;;;;;;;7.45;1.60;;;;;;;-145.49;100.00;55703.94;2080564;28;20205;-69
2024/02/05 09:55:57;;;;;;;9.75;2.00;;;;;;;-145.49;100.00;55703.94;2079683;28;20763;-69
2024/02/05 09:56:59;;;;;;;11.82;2.20;;;;;;;-145.49;100.00;55703.94;2080538;28;20718;-69
2024/02/05 09:58:02;;;;;;;13.77;2.35;;;;;;;-145.49;100.00;55703.94;2079523;28;20255;-69
2024/02/05 09:59:04;;;;;;;6.50;1.75;;;;;;;-145.49;100.00;55703.94;2080069;28;20202;-69
2024/02/05 10:00:06;;;;;;;7.20;2.80;;;;;;;-145.49;100.00;55703.94;2082265;28;20647;-69
2024/02/05 10:01:09;;;;;;;19.40;2.70;;;;;;;-145.49;100.00;55703.94;2079176;28;20217;-69
2024/02/05 10:02:12;;;;;;;13.27;1.90;;;;;;;-145.49;100.00;55703.94;2082165;28;20201;-69
2024/02/05 10:03:18;;;;;;;12.45;2.15;;;;;;;-145.49;100.00;55703.94;2072140;28;20723;-69
2024/02/05 10:04:20;;;;;;;11.88;1.60;;;;;;;-145.49;100.00;55703.94;2079181;28;20640;-69
2024/02/05 10:05:24;;;;;;;7.13;1.80;;;;;;;-145.49;100.00;55703.94;2078980;28;20643;-69
2024/02/05 10:06:33;;;;;;;8.32;1.90;;;;;;;-145.49;100.00;55703.94;2071695;28;20225;-69
2024/02/05 10:07:39;;;;;;;22.02;3.10;;;;;;;-145.49;100.00;55703.94;2081212;28;20193;-69
2024/02/05 10:08:41;;;;;;;16.48;2.38;;;;;;;-145.49;100.00;55703.94;2079347;28;20197;-69
2024/02/05 10:09:43;;;;;;;8.63;2.17;;;;;;;-145.49;100.00;55703.94;2083842;28;21095;-69
2024/02/05 10:10:47;;;;;;;12.63;2.50;;;;;;;-145.49;100.00;55703.94;2069679;28;20205;-69
2024/02/05 10:11:52;;;;;;;16.75;3.00;;;;;;;-145.49;100.00;55703.94;2089080;28;20212;-69
2024/02/05 10:12:55;;;;;;;5.32;1.80;;;;;;;-145.49;100.00;55703.94;2089105;28;20600;-69
2024/02/05 10:13:57;;;;;;;11.63;2.38;;;;;;;-145.49;100.00;55703.94;2087675;28;20756;-69
2024/02/05 10:14:59;;;;;;;9.40;2.70;;;;;;;-145.49;100.00;55703.94;2080456;28;20197;-69
2024/02/05 10:16:01;;;;;;;11.13;2.20;;;;;;;-145.49;100.00;55703.94;2079156;28;20229;-70
2024/02/05 10:17:03;;;;;;;7.38;1.40;;;;;;;-145.49;100.00;55703.94;2078207;28;20201;-69
2024/02/05 10:18:06;;;;;;;13.88;2.00;;;;;;;-145.49;100.00;55703.94;2077809;28;20638;-70
2024/02/05 10:19:08;;;;;;;11.70;2.08;;;;;;;-145.49;100.00;55703.94;2077797;28;20205;-70
2024/02/05 10:20:12;;;;;;;17.25;3.28;;;;;;;-145.49;100.00;55703.94;2082595;28;20201;-69
2024/02/05 10:21:14;;;;;;;18.38;2.33;;;;;;;-145.49;100.00;55703.94;2078412;28;20346;-69
2024/02/05 10:22:16;;;;;;;8.88;2.30;;;;;;;-145.49;100.00;55703.94;2080737;28;20252;-69
2024/02/05 10:23:17;;;;;;;10.52;2.45;;;;;;;-145.49;100.00;55703.94;2080776;28;20193;-69
2024/02/05 10:24:22;;;;;;;8.80;2.10;;;;;;;-145.49;100.00;55703.94;2082463;28;20193;-69
2024/02/05 10:25:25;;;;;;;15.05;2.15;;;;;;;-145.49;100.00;55703.94;2080666;28;20863;-70
2024/02/05 10:26:27;;;;;;;17.60;2.05;;;;;;;-145.49;100.00;55703.94;2080445;28;20295;-69
2024/02/05 10:27:29;;;;;;;8.05;2.03;;;;;;;-145.49;100.00;55703.94;2079936;28;20205;-70
2024/02/05 10:28:30;;;;;;;17.25;2.30;;;;;;;-145.49;100.00;55703.94;2082479;28;20254;-69
2024/02/05 10:29:32;;;;;;;8.82;1.90;;;;;;;-145.49;100.00;55703.94;2083098;28;20190;-69
2024/02/05 10:30:33;;;;;;;9.55;1.65;;;;;;;-145.49;100.00;55703.94;2078446;28;20292;-69
2024/02/05 10:31:47;;;;;;;11.80;1.67;;;;;;;-145.49;100.00;55703.94;2081807;28;20618;-69
2024/02/05 10:32:56;;;;;;;11.85;2.70;;;;;;;-145.49;100.00;55703.94;2089948;28;20193;-69
2024/02/05 10:33:57;;;;;;;16.30;2.00;;;;;;;-145.49;100.00;55703.94;2085333;28;20877;-69
2024/02/05 10:34:59;;;;;;;11.75;2.45;;;;;;;-145.49;100.00;55703.94;2080108;28;20225;-69
2024/02/05 10:36:01;;;;;;;16.45;2.50;;;;;;;-145.49;100.00;55703.94;2079243;28;20241;-69
2024/02/05 10:37:08;;;;;;;11.80;2.75;;;;;;;-145.49;100.00;55703.94;2080023;28;20336;-69
2024/02/05 10:38:11;;;;;;;7.93;1.67;;;;;;;-145.49;100.00;55703.94;2080313;28;20197;-69
2024/02/05 10:39:23;;;;;;;15.57;2.70;;;;;;;-145.49;100.00;55703.94;2082921;28;20193;-69
2024/02/05 10:40:25;;;;;;;9.55;2.08;;;;;;;-145.49;100.00;55703.94;2079903;28;20255;-69
2024/02/05 10:41:27;;;;;;;9.65;1.90;;;;;;;-145.49;100.00;55703.94;2080295;28;20700;-69
2024/02/05 10:42:28;;;;;;;15.70;2.30;;;;;;;-145.49;100.00;55703.94;2079737;28;20676;-69
2024/02/05 10:43:30;;;;;;;9.70;2.03;;;;;;;-145.49;100.00;55703.94;2080165;28;20205;-69
2024/02/05 10:44:32;;;;;;;13.98;2.25;;;;;;;-145.49;100.00;55703.94;2079851;28;20201;-69
2024/02/05 10:45:42;;;;;;;9.80;1.75;;;;;;;-145.49;100.00;55703.94;2081095;28;20242;-69
2024/02/05 10:46:45;;;;;;;7.88;1.92;;;;;;;-145.49;100.00;55703.94;2079971;28;20863;-69
2024/02/05 10:47:47;;;;;;;10.98;2.00;;;;;;;-145.49;100.00;55703.94;2080025;28;20246;-69
2024/02/05 10:48:49;;;;;;;16.80;2.10;;;;;;;-145.49;100.00;55703.94;2080384;28;20321;-69
2024/02/05 10:49:50;;;;;;;7.68;2.10;;;;;;;-145.49;100.00;55703.94;2072873;28;20816;-69
2024/02/05 10:50:54;;;;;;;12.57;2.05;;;;;;;-145.49;100.00;55703.94;2081601;28;20221;-69
2024/02/05 10:51:56;;;;;;;26.27;4.30;;;;;;;-145.49;100.00;55703.94;2080587;28;20217;-70
2024/02/05 10:52:58;;;;;;;13.18;1.55;;;;;;;-145.49;100.00;55703.94;2080321;28;20851;-70
2024/02/05 10:54:01;;;;;;;9.38;1.95;;;;;;;-145.49;100.00;55703.94;2087691;28;20686;-69
2024/02/05 10:55:06;;;;;;;10.07;2.40;;;;;;;-145.49;100.00;55703.94;2087512;28;20620;-70
2024/02/05 10:56:09;;;;;;;10.30;1.85;;;;;;;-145.49;100.00;55703.94;2081188;28;20220;-70
2024/02/05 10:57:13;;;;;;;21.60;3.58;;;;;;;-145.49;100.00;55703.94;2083051;28;20197;-69
2024/02/05 10:58:16;;;;;;;10.95;1.75;;;;;;;-145.49;100.00;55703.94;2080437;28;20202;-70
2024/02/05 10:59:18;;;;;;;15.25;2.58;;;;;;;-145.49;100.00;55703.94;2078914;28;20203;-70
2024/02/05 11:00:20;;;;;;;19.85;2.20;;;;;;;-145.49;100.00;55703.94;2081210;28;20203;-69
2024/02/05 11:01:25;;;;;;;8.45;1.83;;;;;;;-145.49;100.00;55703.94;2078170;28;21136;-70
2024/02/05 11:02:33;;;;;;;13.23;1.73;;;;;;;-145.49;100.00;55703.94;2080390;28;20226;-69
2024/02/05 11:03:37;;;;;;;10.32;2.10;;;;;;;-145.49;100.00;55703.94;2079904;28;20205;-69
2024/02/05 11:04:39;;;;;;;11.63;1.58;;;;;;;-145.49;100.00;55703.94;2080949;28;20821;-69
2024/02/05 11:05:42;;;;;;;6.55;2.03;;;;;;;-145.49;100.00;55703.94;2078257;28;20241;-69
2024/02/05 11:06:49;;;;;;;13.65;2.08;;;;;;;-145.49;100.00;55703.94;2080013;28;20699;-69
2024/02/05 11:07:58;;;;;;;9.30;2.20;;;;;;;-145.49;100.00;55703.94;2078534;28;20229;-69
2024/02/05 11:09:04;;;;;;;17.27;2.80;;;;;;;-145.49;100.00;55703.94;2079911;28;20213;-69
2024/02/05 11:10:08;;;;;;;10.75;1.95;;;;;;;-145.49;100.00;55703.94;2080598;28;20225;-69
2024/02/05 11:11:12;;;;;;;15.40;2.20;;;;;;;-145.49;100.00;55703.94;2078797;28;20222;-69
2024/02/05 11:12:15;;;;;;;19.20;2.70;;;;;;;-145.49;100.00;55703.94;2076576;28;20259;-69
2024/02/05 11:13:20;;;;;;;14.18;3.00;;;;;;;-145.49;100.00;55703.94;2078650;28;20198;-69
2024/02/05 11:14:22;;;;;;;11.88;3.00;;;;;;;-145.49;100.00;55703.94;2079997;28;20201;-69
2024/02/05 11:15:28;;;;;;;14.00;2.28;;;;;;;-145.49;100.00;55703.94;2080008;28;20201;-69
2024/02/05 11:16:32;;;;;;;9.25;2.05;;;;;;;-145.49;100.00;55703.94;2075593;28;20244;-69
2024/02/05 11:17:35;;;;;;;10.60;1.90;;;;;;;-145.49;100.00;55703.94;2079848;28;20201;-69
2024/02/05 11:18:42;;;;;;;11.43;2.35;;;;;;;-145.49;100.00;55703.94;2080172;28;20210;-69
2024/02/05 11:19:49;;;;;;;9.93;3.05;;;;;;;-145.49;100.00;55703.94;2079443;28;20198;-69
2024/02/05 11:20:53;;;;;;;12.00;1.90;;;;;;;-145.49;100.00;55703.94;2076209;28;20198;-70
2024/02/05 11:21:58;;;;;;;16.42;2.22;;;;;;;-145.49;100.00;55703.94;2080544;28;20197;-71
2024/02/05 11:23:05;;;;;;;10.25;1.65;;;;;;;-145.49;100.00;55703.94;2078060;28;20216;-69
2024/02/05 11:24:09;;;;;;;5.38;1.80;;;;;;;-145.49;100.00;55703.94;2079303;28;20193;-69
2024/02/05 11:25:12;;;;;;;8.93;1.88;;;;;;;-145.49;100.00;55703.94;2080083;28;20649;-69
2024/02/05 11:26:15;;;;;;;18.02;2.60;;;;;;;-145.49;100.00;55703.94;2078101;28;20221;-69
2024/02/05 11:27:16;;;;;;;4.88;2.00;;;;;;;-145.49;100.00;55703.94;2080348;28;20197;-69
2024/02/05 11:28:18;;;;;;;6.30;1.80;;;;;;;-145.49;100.00;55703.94;2083108;28;20209;-69
2024/02/05 11:29:23;;;;;;;7.28;1.30;;;;;;;-145.49;100.00;55703.94;2079230;28;20200;-69
2024/02/05 11:30:28;;;;;;;17.73;1.90;;;;;;;-145.49;100.00;55703.94;2078180;28;20240;-69
2024/02/05 11:31:34;;;;;;;6.30;1.40;;;;;;;-145.49;100.00;55703.94;2072170;28;20581;-69
2024/02/05 11:32:36;;;;;;;10.85;1.90;;;;;;;-145.49;100.00;55703.94;2080708;28;20213;-69
2024/02/05 11:33:38;;;;;;;14.77;2.35;;;;;;;-145.49;100.00;55703.94;2078952;28;20198;-69
2024/02/05 11:34:44;;;;;;;11.88;1.92;;;;;;;-145.49;100.00;55703.94;2079674;28;20641;-69
2024/02/05 11:35:49;;;;;;;7.53;1.90;;;;;;;-145.49;100.00;55703.94;2075591;28;20201;-69
2024/02/05 11:36:53;;;;;;;8.20;1.55;;;;;;;-145.49;100.00;55703.94;2080181;28;20233;-69
2024/02/05 11:38:10;;;;;;;9.77;1.90;;;;;;;-145.49;100.00;55703.94;2079462;28;20197;-69
2024/02/05 11:39:12;;;;;;;9.13;1.48;;;;;;;-145.49;100.00;55703.94;2080090;28;20742;-69
2024/02/05 11:40:20;;;;;;;7.15;1.50;;;;;;;-145.49;100.00;55703.94;2080068;28;20204;-69
2024/02/05 11:41:22;;;;;;;11.38;2.22;;;;;;;-145.49;100.00;55703.94;2077615;28;20621;-69
2024/02/05 11:42:23;;;;;;;6.22;1.67;;;;;;;-145.49;100.00;55703.94;2080464;28;20267;-70
2024/02/05 11:43:25;;;;;;;12.88;2.83;;;;;;;-145.49;100.00;55703.94;2080354;28;20200;-69
2024/02/05 11:44:27;;;;;;;11.23;2.10;;;;;;;-145.49;100.00;55703.94;2079853;28;20197;-69
2024/02/05 11:45:30;;;;;;;15.63;2.28;;;;;;;-145.49;100.00;55703.94;2080656;28;20220;-69
2024/02/05 11:46:33;;;;;;;7.78;1.98;;;;;;;-145.49;100.00;55703.94;2073188;28;20241;-69
2024/02/05 11:47:36;;;;;;;10.20;2.08;;;;;;;-145.49;100.00;55703.94;2075255;28;20408;-69
2024/02/05 11:48:40;;;;;;;9.70;2.10;;;;;;;-145.49;100.00;55703.94;2071984;28;20229;-69
2024/02/05 11:49:43;;;;;;;5.65;1.60;;;;;;;-145.49;100.00;55703.94;2071588;28;20259;-69
2024/02/05 11:50:47;;;;;;;6.63;1.67;;;;;;;-145.49;100.00;55703.94;2072222;28;20237;-70
2024/02/05 11:51:48;;;;;;;5.80;1.70;;;;;;;-145.49;100.00;55703.94;2073019;28;20776;-69
2024/02/05 11:52:50;;;;;;;7.00;1.73;;;;;;;-145.49;100.00;55703.94;2073648;28;20276;-69
2024/02/05 11:53:54;;;;;;;10.45;1.20;;;;;;;-145.49;100.00;55703.94;2067848;28;20197;-69
2024/02/05 11:54:56;;;;;;;8.63;2.08;;;;;;;-145.49;100.00;55703.94;2068428;28;20287;-69
2024/02/05 11:55:58;;;;;;;9.05;1.88;;;;;;;-145.49;100.00;55703.94;2068865;28;20222;-69
2024/02/05 11:57:02;;;;;;;8.55;1.92;;;;;;;-145.49;100.00;55703.94;2070379;28;20225;-69
2024/02/05 11:58:05;;;;;;;17.42;2.45;;;;;;;-145.49;100.00;55703.94;2070997;28;20202;-69
2024/02/05 11:59:08;;;;;;;7.35;1.98;;;;;;;-145.49;100.00;55703.94;2071411;28;20206;-69
2024/02/05 12:00:14;;;;;;;8.80;1.30;;;;;;;-145.49;100.00;55703.94;2071019;28;20576;-69
2024/02/05 12:01:16;;;;;;;18.77;2.65;;;;;;;-145.49;100.00;55703.94;2071817;28;20373;-69
2024/02/05 12:02:18;;;;;;;8.98;2.00;;;;;;;-145.49;100.00;55703.94;2071718;28;20237;-69
2024/02/05 12:03:21;;;;;;;10.45;2.03;;;;;;;-145.49;100.00;55703.94;2071868;28;20205;-69
2024/02/05 12:04:23;;;;;;;13.80;2.00;;;;;;;-145.49;100.00;55703.94;2072211;28;20206;-69
2024/02/05 12:05:26;;;;;;;12.13;1.83;;;;;;;-145.49;100.00;55703.94;2071963;28;20198;-69
2024/02/05 12:06:29;;;;;;;7.95;1.60;;;;;;;-145.49;100.00;55703.94;2064746;28;20269;-69
2024/02/05 12:07:31;;;;;;;10.38;1.67;;;;;;;-145.49;100.00;55703.94;2071690;28;20254;-69
2024/02/05 12:08:33;;;;;;;12.20;1.90;;;;;;;-145.49;100.00;55703.94;2071527;28;20206;-69
2024/02/05 12:09:34;;;;;;;7.85;1.67;;;;;;;-145.49;100.00;55703.94;2072139;28;20198;-69
2024/02/05 12:10:36;;;;;;;14.63;2.45;;;;;;;-145.49;100.00;55703.94;2073967;28;20203;-69
2024/02/05 12:11:39;;;;;;;10.77;1.55;;;;;;;-145.49;100.00;55703.94;2075221;28;20197;-69
2024/02/05 12:12:40;;;;;;;7.82;1.80;;;;;;;-145.49;100.00;55703.94;2070278;28;20222;-69
2024/02/05 12:13:42;;;;;;;7.72;1.92;;;;;;;-145.49;100.00;55703.94;2070528;28;20712;-69
2024/02/05 12:14:43;;;;;;;7.20;1.27;;;;;;;-145.49;100.00;55703.94;2069920;28;20217;-69
2024/02/05 12:15:45;;;;;;;10.30;1.60;;;;;;;-145.49;100.00;55703.94;2070997;28;20234;-69
2024/02/05 12:16:47;;;;;;;9.10;2.10;;;;;;;-145.49;100.00;55703.94;2071067;28;20198;-69